Time;durP1;ratioP1;P1;durP2;ratioP2;P2;SDS_P1;SDS_P2;PMS_P1;PMS_P2;Temp;Humidity;BMP_temperature;BMP_pressure;BME280_temperature;BME280_humidity;BME280_pressure;Samples;Min_cycle;Max_cycle;Signal;HPM_P1;HPM_P2
2023/12/07 00:00:27;;;;;;;17.55;5.53;;;1.50;99.90;;;;;;6177449;23;20104;-76
2023/12/07 00:02:52;;;;;;;12.15;5.85;;;1.50;99.90;;;;;;6180497;23;20024;-76
2023/12/07 00:05:18;;;;;;;14.25;4.90;;;1.50;99.90;;;;;;6179238;23;20013;-76
2023/12/07 00:07:43;;;;;;;14.00;4.93;;;1.50;99.90;;;;;;6178319;23;20013;-77
2023/12/07 00:10:09;;;;;;;7.47;3.90;;;1.50;99.90;;;;;;6178656;23;20455;-76
2023/12/07 00:12:35;;;;;;;8.45;4.25;;;1.50;99.90;;;;;;6180151;23;20017;-76
2023/12/07 00:15:00;;;;;;;9.73;4.25;;;1.40;99.90;;;;;;6178486;23;20096;-78
2023/12/07 00:17:26;;;;;;;10.15;3.78;;;1.40;99.90;;;;;;6178490;23;20040;-76
2023/12/07 00:19:53;;;;;;;7.57;3.85;;;1.40;99.90;;;;;;6179545;23;20096;-77
2023/12/07 00:22:20;;;;;;;10.25;4.25;;;1.40;99.90;;;;;;6178487;23;20017;-76
2023/12/07 00:24:45;;;;;;;13.32;5.40;;;1.30;99.90;;;;;;6180080;23;20565;-77
2023/12/07 00:27:11;;;;;;;11.48;4.82;;;1.40;99.90;;;;;;6176490;23;20013;-76
2023/12/07 00:29:38;;;;;;;11.70;4.78;;;1.40;99.90;;;;;;6178071;23;20514;-76
2023/12/07 00:32:04;;;;;;;15.65;4.53;;;1.30;99.90;;;;;;6178640;23;20028;-77
2023/12/07 00:34:30;;;;;;;18.15;5.35;;;1.30;99.90;;;;;;6180123;23;20011;-78
2023/12/07 00:36:55;;;;;;;15.57;4.95;;;1.20;99.90;;;;;;6177941;23;20009;-75
2023/12/07 00:39:21;;;;;;;10.38;4.70;;;1.20;99.90;;;;;;6178569;23;20013;-75
2023/12/07 00:41:47;;;;;;;12.60;5.32;;;1.10;99.90;;;;;;6179901;23;20024;-76
2023/12/07 00:44:14;;;;;;;9.13;3.90;;;1.10;99.90;;;;;;6178666;23;20025;-74
2023/12/07 00:46:40;;;;;;;7.18;3.55;;;1.00;99.90;;;;;;6179509;23;20036;-76
2023/12/07 00:49:05;;;;;;;11.65;4.28;;;1.00;99.90;;;;;;6178186;23;20119;-77
2023/12/07 00:51:31;;;;;;;10.23;3.58;;;1.00;99.90;;;;;;6180035;23;20009;-78
2023/12/07 00:53:57;;;;;;;10.23;4.53;;;1.00;99.90;;;;;;6180086;23;20024;-77
2023/12/07 00:56:22;;;;;;;9.55;4.22;;;0.90;99.90;;;;;;6178333;23;20206;-76
2023/12/07 00:58:48;;;;;;;8.02;4.03;;;0.90;99.90;;;;;;6177637;23;20435;-75
2023/12/07 01:01:13;;;;;;;13.75;4.60;;;0.90;99.90;;;;;;6178630;23;20343;-75
2023/12/07 01:03:40;;;;;;;6.53;3.10;;;0.90;99.90;;;;;;6177912;23;20442;-76
2023/12/07 01:06:07;;;;;;;7.03;3.33;;;0.90;99.90;;;;;;6178163;23;20005;-75
2023/12/07 01:08:32;;;;;;;7.95;3.47;;;0.80;99.90;;;;;;6179053;23;20008;-75
2023/12/07 01:10:58;;;;;;;6.72;3.30;;;0.80;99.90;;;;;;6178017;23;20043;-78
2023/12/07 01:13:24;;;;;;;7.25;3.45;;;0.80;99.90;;;;;;6178172;23;20438;-76
2023/12/07 01:15:50;;;;;;;7.97;4.03;;;0.80;99.90;;;;;;6179601;23;20342;-75
2023/12/07 01:18:15;;;;;;;8.25;3.78;;;0.80;99.90;;;;;;6178496;23;20777;-75
2023/12/07 01:20:41;;;;;;;8.43;3.47;;;0.80;99.90;;;;;;6179467;23;20013;-77
2023/12/07 01:23:08;;;;;;;9.65;4.35;;;0.70;99.90;;;;;;6178580;23;20005;-76
2023/12/07 01:25:34;;;;;;;10.95;3.85;;;0.70;99.90;;;;;;6179749;23;20021;-76
2023/12/07 01:28:00;;;;;;;8.18;4.63;;;0.70;99.90;;;;;;6179094;23;20012;-77
2023/12/07 01:30:25;;;;;;;8.98;3.83;;;0.60;99.90;;;;;;6176284;23;20005;-76
2023/12/07 01:32:51;;;;;;;7.88;3.00;;;0.60;99.90;;;;;;6177317;23;20087;-76
2023/12/07 01:35:17;;;;;;;8.73;3.40;;;0.60;99.90;;;;;;6177852;23;20382;-77
2023/12/07 01:37:42;;;;;;;10.00;3.67;;;0.60;99.90;;;;;;6177450;23;20016;-75
2023/12/07 01:40:10;;;;;;;8.27;4.03;;;0.60;99.90;;;;;;6176426;23;20024;-76
2023/12/07 01:42:37;;;;;;;9.88;4.03;;;0.60;99.90;;;;;;6179179;23;20502;-77
2023/12/07 01:45:03;;;;;;;9.57;4.13;;;0.60;99.90;;;;;;6177746;23;20301;-76
2023/12/07 01:47:30;;;;;;;10.25;3.38;;;0.60;99.90;;;;;;6176471;23;20041;-76
2023/12/07 01:49:56;;;;;;;6.85;3.45;;;0.50;99.90;;;;;;6178940;23;20024;-77
2023/12/07 01:52:24;;;;;;;6.38;3.17;;;0.50;99.90;;;;;;6175821;23;20017;-76
2023/12/07 01:54:50;;;;;;;7.93;3.38;;;0.50;99.90;;;;;;6177321;23;20017;-76
2023/12/07 01:57:15;;;;;;;7.70;3.95;;;0.50;99.90;;;;;;6176164;23;20451;-76
2023/12/07 01:59:41;;;;;;;9.27;3.50;;;0.50;99.90;;;;;;6179027;23;20350;-76
2023/12/07 02:02:07;;;;;;;6.40;2.75;;;0.50;99.90;;;;;;6177750;23;20025;-77
2023/12/07 02:04:32;;;;;;;9.73;3.65;;;0.50;99.90;;;;;;6179229;23;20013;-75
2023/12/07 02:07:01;;;;;;;5.30;2.90;;;0.50;99.90;;;;;;6177582;23;20376;-77
2023/12/07 02:09:26;;;;;;;10.73;3.70;;;0.50;99.90;;;;;;6175791;23;20017;-76
2023/12/07 02:11:52;;;;;;;8.90;3.28;;;0.50;99.90;;;;;;6178970;23;20580;-75
2023/12/07 02:14:18;;;;;;;7.57;2.90;;;0.50;99.90;;;;;;6177872;23;20013;-76
2023/12/07 02:16:50;;;;;;;7.50;3.22;;;0.50;99.90;;;;;;6178496;23;20021;-75
2023/12/07 02:20:05;;;;;;;7.93;3.63;;;0.50;99.90;;;;;;6177477;23;20100;-76
2023/12/07 02:22:52;;;;;;;12.00;5.50;;;0.60;99.90;;;;;;6144513;23;20005;-75
2023/12/07 02:25:22;;;;;;;9.05;5.03;;;0.80;99.90;;;;;;6176436;23;20025;-76
2023/12/07 02:27:48;;;;;;;8.70;4.38;;;0.80;99.90;;;;;;6178946;23;20720;-76
2023/12/07 02:30:14;;;;;;;7.80;4.30;;;0.80;99.90;;;;;;6175808;23;20069;-76
2023/12/07 02:32:43;;;;;;;7.53;3.40;;;0.80;99.90;;;;;;6176938;23;20017;-77
2023/12/07 02:35:13;;;;;;;8.02;4.15;;;0.80;99.90;;;;;;6175499;23;20017;-76
2023/12/07 02:37:50;;;;;;;9.43;4.70;;;0.70;99.90;;;;;;6176854;23;20028;-76
2023/12/07 02:40:20;;;;;;;6.93;3.80;;;0.70;99.90;;;;;;6177590;23;20020;-77
2023/12/07 02:42:47;;;;;;;9.95;4.60;;;0.70;99.90;;;;;;6176669;23;20478;-76
2023/12/07 02:45:13;;;;;;;8.85;4.75;;;0.70;99.90;;;;;;6177313;23;20455;-76
2023/12/07 02:47:39;;;;;;;7.28;3.30;;;0.70;99.90;;;;;;6178714;23;20474;-77
2023/12/07 02:50:06;;;;;;;7.68;3.55;;;0.70;99.90;;;;;;6177698;23;20013;-76
2023/12/07 02:52:32;;;;;;;12.10;4.47;;;0.60;99.90;;;;;;6176757;23;20028;-76
2023/12/07 02:54:58;;;;;;;9.32;3.95;;;0.70;99.90;;;;;;6179386;23;20009;-76
2023/12/07 02:57:23;;;;;;;7.65;3.22;;;0.70;99.90;;;;;;6177355;23;20012;-76
2023/12/07 02:59:49;;;;;;;6.88;3.92;;;0.70;99.90;;;;;;6178676;23;20362;-75
2023/12/07 03:02:14;;;;;;;7.15;3.22;;;0.70;99.90;;;;;;6175856;23;20024;-76
2023/12/07 03:04:40;;;;;;;6.57;2.95;;;0.60;99.90;;;;;;6178602;23;20092;-75
2023/12/07 03:07:06;;;;;;;6.63;3.63;;;0.60;99.90;;;;;;6177201;23;20096;-75
2023/12/07 03:09:31;;;;;;;6.07;3.05;;;0.60;99.90;;;;;;6176818;23;20017;-76
2023/12/07 03:11:57;;;;;;;6.10;3.58;;;0.60;99.90;;;;;;6178248;23;20047;-75
2023/12/07 03:14:23;;;;;;;8.60;4.00;;;0.60;99.90;;;;;;6177636;23;20024;-76
2023/12/07 03:16:48;;;;;;;7.88;3.80;;;0.60;99.90;;;;;;6178669;23;20415;-76
2023/12/07 03:19:14;;;;;;;5.38;3.15;;;0.50;99.90;;;;;;6175404;23;20103;-76
2023/12/07 03:21:43;;;;;;;6.07;3.40;;;0.50;99.90;;;;;;6177106;23;20557;-76
2023/12/07 03:24:09;;;;;;;8.90;3.55;;;0.50;99.90;;;;;;6177348;23;20388;-76
2023/12/07 03:26:35;;;;;;;8.25;3.63;;;0.50;99.90;;;;;;6178352;23;20013;-75
2023/12/07 03:29:01;;;;;;;7.57;3.33;;;0.50;99.90;;;;;;6178541;23;20403;-76
2023/12/07 03:31:27;;;;;;;17.83;4.78;;;0.50;99.90;;;;;;6176988;23;20017;-75
2023/12/07 03:33:53;;;;;;;7.28;3.45;;;0.50;99.90;;;;;;6178587;23;20009;-77
2023/12/07 03:36:19;;;;;;;7.00;3.65;;;0.50;99.90;;;;;;6174208;23;20013;-75
2023/12/07 03:38:45;;;;;;;9.05;3.65;;;0.50;99.90;;;;;;6176527;23;20017;-76
2023/12/07 03:41:10;;;;;;;9.63;4.13;;;0.50;99.90;;;;;;6175313;23;20009;-76
2023/12/07 03:43:36;;;;;;;10.32;3.75;;;0.50;99.90;;;;;;6176380;23;20024;-75
2023/12/07 03:46:06;;;;;;;9.57;3.85;;;0.50;99.90;;;;;;6176452;23;20099;-77
2023/12/07 03:48:32;;;;;;;6.00;3.33;;;0.40;99.90;;;;;;6177414;23;20778;-76
2023/12/07 03:50:58;;;;;;;7.57;3.72;;;0.40;99.90;;;;;;6176549;23;20024;-76
2023/12/07 03:53:23;;;;;;;8.07;3.90;;;0.40;99.90;;;;;;6177092;23;20106;-77
2023/12/07 03:55:49;;;;;;;8.25;3.90;;;0.40;99.90;;;;;;6175752;23;20068;-75
2023/12/07 03:58:14;;;;;;;8.05;3.35;;;0.40;99.90;;;;;;6175397;23;20017;-76
2023/12/07 04:00:40;;;;;;;5.05;3.00;;;0.40;99.90;;;;;;6178680;23;20017;-76
2023/12/07 04:03:06;;;;;;;16.95;4.03;;;0.40;99.90;;;;;;6175238;23;20072;-75
2023/12/07 04:05:31;;;;;;;11.15;4.15;;;0.40;99.90;;;;;;6177400;23;20024;-76
2023/12/07 04:07:57;;;;;;;11.30;4.18;;;0.50;99.90;;;;;;6178635;23;20013;-75
2023/12/07 04:10:23;;;;;;;6.55;3.47;;;0.50;99.90;;;;;;6176269;23;20474;-76
2023/12/07 04:12:49;;;;;;;9.65;3.90;;;0.60;99.90;;;;;;6179926;23;20040;-75
2023/12/07 04:15:15;;;;;;;8.75;4.18;;;0.60;99.90;;;;;;6178632;23;20035;-77
2023/12/07 04:17:40;;;;;;;9.77;4.75;;;0.70;99.90;;;;;;6177852;23;20013;-76
2023/12/07 04:20:07;;;;;;;10.15;4.85;;;0.70;99.90;;;;;;6176039;23;20020;-77
2023/12/07 04:22:33;;;;;;;12.23;4.80;;;0.80;99.90;;;;;;6177688;23;20009;-77
2023/12/07 04:24:58;;;;;;;11.05;4.78;;;0.80;99.90;;;;;;6178279;23;20024;-76
2023/12/07 04:27:24;;;;;;;10.50;4.63;;;0.90;99.90;;;;;;6178171;23;20384;-75
2023/12/07 04:29:49;;;;;;;11.95;4.57;;;0.90;99.90;;;;;;6179553;23;20068;-76
2023/12/07 04:32:15;;;;;;;12.98;5.07;;;1.00;99.90;;;;;;6176514;23;20016;-75
2023/12/07 04:34:40;;;;;;;10.02;4.90;;;1.00;99.90;;;;;;6177956;23;20013;-77
2023/12/07 04:37:06;;;;;;;10.25;4.63;;;1.00;99.90;;;;;;6176634;23;20096;-75
2023/12/07 04:39:32;;;;;;;10.20;4.93;;;1.10;99.90;;;;;;6179367;23;20006;-76
2023/12/07 04:41:57;;;;;;;7.95;4.40;;;1.00;99.90;;;;;;6179761;23;20013;-75
2023/12/07 04:44:25;;;;;;;10.27;5.05;;;1.10;99.90;;;;;;6176993;23;20463;-77
2023/12/07 04:46:51;;;;;;;9.23;4.65;;;1.10;99.90;;;;;;6180065;23;20017;-76
2023/12/07 04:49:17;;;;;;;11.90;4.95;;;1.10;99.90;;;;;;6178727;23;20021;-75
2023/12/07 04:51:46;;;;;;;11.70;4.45;;;1.10;99.90;;;;;;6178185;23;20067;-76
2023/12/07 04:54:12;;;;;;;12.63;5.15;;;1.10;99.90;;;;;;6176424;23;20346;-76
2023/12/07 04:56:40;;;;;;;8.52;4.55;;;1.10;99.90;;;;;;6177599;23;20076;-75
2023/12/07 04:59:05;;;;;;;10.38;4.53;;;1.00;99.90;;;;;;6176287;23;20013;-76
2023/12/07 05:01:31;;;;;;;12.50;4.82;;;1.00;99.90;;;;;;6179013;23;20072;-76
2023/12/07 05:03:56;;;;;;;18.58;6.53;;;1.00;99.90;;;;;;6179651;23;20020;-77
2023/12/07 05:06:22;;;;;;;26.80;7.47;;;1.10;99.90;;;;;;6178124;23;20039;-76
2023/12/07 05:08:47;;;;;;;38.08;7.10;;;1.10;99.90;;;;;;6178881;23;20013;-75
2023/12/07 05:11:13;;;;;;;37.60;7.63;;;1.20;99.90;;;;;;6176137;23;20509;-76
2023/12/07 05:13:39;;;;;;;73.10;10.43;;;1.20;99.90;;;;;;6179039;23;20509;-76
2023/12/07 05:16:04;;;;;;;21.90;6.95;;;1.20;99.90;;;;;;6178049;23;20386;-75
2023/12/07 05:18:30;;;;;;;22.38;6.20;;;1.20;99.90;;;;;;6177269;23;20455;-76
2023/12/07 05:20:56;;;;;;;30.85;8.75;;;1.20;99.90;;;;;;6177809;23;20005;-75
2023/12/07 05:23:21;;;;;;;36.45;8.07;;;1.20;99.90;;;;;;6176382;23;20075;-76
2023/12/07 05:25:47;;;;;;;46.20;8.80;;;1.30;99.90;;;;;;6179233;23;20012;-78
2023/12/07 05:28:13;;;;;;;44.83;8.02;;;1.30;99.90;;;;;;6175930;23;20013;-76
2023/12/07 05:30:38;;;;;;;40.53;8.43;;;1.30;99.90;;;;;;6177290;23;20470;-76
2023/12/07 05:33:04;;;;;;;87.10;9.65;;;1.30;99.90;;;;;;6177054;23;20088;-77
2023/12/07 05:35:29;;;;;;;33.55;7.95;;;1.30;99.90;;;;;;6176989;23;20013;-76
2023/12/07 05:37:55;;;;;;;38.78;8.00;;;1.20;99.90;;;;;;6177386;23;20451;-76
2023/12/07 05:40:21;;;;;;;138.80;10.63;;;1.20;99.90;;;;;;6176468;23;20071;-76
2023/12/07 05:42:49;;;;;;;48.50;8.27;;;1.20;99.90;;;;;;6175261;23;20016;-76
2023/12/07 05:45:15;;;;;;;37.28;8.43;;;1.20;99.90;;;;;;6176534;23;20020;-73
2023/12/07 05:47:41;;;;;;;36.42;9.07;;;1.20;99.90;;;;;;6176262;23;20008;-76
2023/12/07 05:50:07;;;;;;;71.72;8.88;;;1.10;99.90;;;;;;6175708;23;20374;-76
2023/12/07 05:52:33;;;;;;;65.05;7.93;;;1.10;99.90;;;;;;6177482;23;20678;-77
2023/12/07 05:54:58;;;;;;;32.47;6.85;;;1.10;99.90;;;;;;6178038;23;20037;-76
2023/12/07 05:57:24;;;;;;;28.80;7.45;;;1.00;99.90;;;;;;6175904;23;20079;-76
2023/12/07 05:59:50;;;;;;;34.78;7.93;;;1.00;99.90;;;;;;6175998;23;20048;-77
2023/12/07 06:02:15;;;;;;;33.20;7.15;;;1.00;99.90;;;;;;6176750;23;20036;-76
2023/12/07 06:04:41;;;;;;;40.95;7.57;;;1.00;99.90;;;;;;6176287;23;20422;-76
2023/12/07 06:07:06;;;;;;;40.55;6.43;;;1.00;99.90;;;;;;6174171;23;20017;-76
2023/12/07 06:09:32;;;;;;;36.35;8.15;;;1.00;99.90;;;;;;6174251;23;20084;-74
2023/12/07 06:11:58;;;;;;;44.90;7.85;;;0.90;99.90;;;;;;6177197;23;20017;-77
2023/12/07 06:14:24;;;;;;;61.45;7.75;;;0.90;99.90;;;;;;6174857;23;20005;-74
2023/12/07 06:16:49;;;;;;;72.00;8.95;;;0.80;99.90;;;;;;6175730;23;20075;-76
2023/12/07 06:19:15;;;;;;;17.17;6.60;;;0.80;99.90;;;;;;6174495;23;20444;-76
2023/12/07 06:21:41;;;;;;;77.18;9.95;;;0.80;99.90;;;;;;6175804;23;20028;-76
2023/12/07 06:24:07;;;;;;;35.67;6.72;;;0.80;99.90;;;;;;6176594;23;20016;-76
2023/12/07 06:26:33;;;;;;;27.25;7.18;;;0.80;99.90;;;;;;6177085;23;20008;-76
2023/12/07 06:28:58;;;;;;;31.63;7.75;;;0.80;99.90;;;;;;6176154;23;20012;-76
2023/12/07 06:31:24;;;;;;;38.38;8.70;;;0.80;99.90;;;;;;6177116;23;20072;-76
2023/12/07 06:33:50;;;;;;;68.82;10.77;;;0.80;99.90;;;;;;6178810;23;20036;-77
2023/12/07 06:36:22;;;;;;;42.83;7.60;;;0.80;99.90;;;;;;6175039;23;20028;-77
2023/12/07 06:38:48;;;;;;;37.03;8.13;;;0.80;99.90;;;;;;6177932;23;20013;-75
2023/12/07 06:41:15;;;;;;;33.65;7.72;;;0.80;99.90;;;;;;6177198;23;20043;-76
2023/12/07 06:43:40;;;;;;;44.80;9.00;;;0.80;99.90;;;;;;6176860;23;20015;-76
2023/12/07 06:46:06;;;;;;;42.00;8.75;;;0.80;99.90;;;;;;6176855;23;20080;-76
2023/12/07 06:48:31;;;;;;;62.88;9.73;;;0.80;99.90;;;;;;6176499;23;20017;-76
2023/12/07 06:50:57;;;;;;;87.03;11.07;;;0.80;99.90;;;;;;6178482;23;20005;-76
2023/12/07 06:53:23;;;;;;;59.80;9.52;;;0.80;99.90;;;;;;6175179;23;20505;-76
2023/12/07 06:55:48;;;;;;;34.25;8.75;;;0.80;99.90;;;;;;6178503;23;20426;-75
2023/12/07 06:58:14;;;;;;;35.75;8.98;;;0.80;99.90;;;;;;6176694;23;20013;-77
2023/12/07 07:00:39;;;;;;;72.40;10.23;;;0.80;99.90;;;;;;6176533;23;20019;-76
2023/12/07 07:03:06;;;;;;;61.55;8.57;;;0.80;99.90;;;;;;6177215;23;20324;-76
2023/12/07 07:05:31;;;;;;;26.42;9.00;;;0.80;99.90;;;;;;6178631;23;20097;-75
2023/12/07 07:07:57;;;;;;;58.22;11.60;;;0.80;99.90;;;;;;6176458;23;20395;-76
2023/12/07 07:10:22;;;;;;;40.47;9.85;;;0.80;99.90;;;;;;6175443;23;20115;-78
2023/12/07 07:12:48;;;;;;;97.55;11.80;;;0.80;99.90;;;;;;6178689;23;20024;-75
2023/12/07 07:15:14;;;;;;;70.53;9.85;;;0.90;99.90;;;;;;6175530;23;20083;-75
2023/12/07 07:17:40;;;;;;;47.72;9.30;;;0.80;99.90;;;;;;6176780;23;20438;-76
2023/12/07 07:20:06;;;;;;;41.15;9.25;;;0.80;99.90;;;;;;6177725;23;20019;-76
2023/12/07 07:22:31;;;;;;;34.90;9.82;;;0.80;99.90;;;;;;6176937;23;20060;-76
2023/12/07 07:24:57;;;;;;;60.35;9.70;;;0.80;99.90;;;;;;6178329;23;20021;-76
2023/12/07 07:27:23;;;;;;;53.60;9.10;;;0.90;99.90;;;;;;6174764;23;20012;-74
2023/12/07 07:29:48;;;;;;;78.43;9.85;;;0.90;99.90;;;;;;6177811;23;20017;-76
2023/12/07 07:32:14;;;;;;;33.85;8.68;;;0.80;99.90;;;;;;6175967;23;20145;-76
2023/12/07 07:34:39;;;;;;;23.83;8.60;;;0.80;99.90;;;;;;6180184;23;20020;-75
2023/12/07 07:37:06;;;;;;;34.15;7.95;;;0.80;99.90;;;;;;6178519;23;20447;-77
2023/12/07 07:39:32;;;;;;;36.28;8.93;;;0.80;99.90;;;;;;6177525;23;20394;-76
2023/12/07 07:41:58;;;;;;;49.75;9.45;;;0.80;99.90;;;;;;6179924;23;20017;-76
2023/12/07 07:44:23;;;;;;;17.30;6.80;;;0.90;99.90;;;;;;6177009;23;20008;-75
2023/12/07 07:46:49;;;;;;;31.02;8.02;;;0.90;99.90;;;;;;6178239;23;20545;-75
2023/12/07 07:49:15;;;;;;;36.17;7.85;;;0.90;99.90;;;;;;6178916;23;20358;-77
2023/12/07 07:51:40;;;;;;;38.35;7.93;;;0.90;99.90;;;;;;6178274;23;20013;-76
2023/12/07 07:54:06;;;;;;;48.22;6.93;;;0.90;99.90;;;;;;6178243;23;20005;-76
2023/12/07 07:56:31;;;;;;;25.20;6.82;;;0.90;99.90;;;;;;6178042;23;20017;-75
2023/12/07 07:59:00;;;;;;;34.28;7.25;;;0.90;99.90;;;;;;6180078;23;20005;-75
2023/12/07 08:01:26;;;;;;;30.10;7.68;;;0.90;99.90;;;;;;6179094;23;20036;-76
2023/12/07 08:03:51;;;;;;;31.60;7.25;;;1.00;99.90;;;;;;6180531;23;20004;-76
2023/12/07 08:06:17;;;;;;;39.97;8.30;;;0.90;99.90;;;;;;6178114;23;20431;-78
2023/12/07 08:08:43;;;;;;;32.95;7.15;;;1.00;99.90;;;;;;6178975;23;20009;-77
2023/12/07 08:11:08;;;;;;;35.65;7.00;;;1.00;99.90;;;;;;6179054;23;20081;-76
2023/12/07 08:13:34;;;;;;;32.58;7.13;;;0.90;99.90;;;;;;6180038;23;20021;-77
2023/12/07 08:15:59;;;;;;;48.45;7.72;;;1.00;99.90;;;;;;6178152;23;20436;-76
2023/12/07 08:18:25;;;;;;;28.73;5.28;;;0.90;99.90;;;;;;6176460;23;20452;-75
2023/12/07 08:20:51;;;;;;;36.63;6.18;;;0.90;99.90;;;;;;6180045;23;20005;-77
2023/12/07 08:23:17;;;;;;;36.58;6.60;;;0.90;99.90;;;;;;6176625;23;20016;-76
2023/12/07 08:25:43;;;;;;;35.05;5.65;;;0.90;99.90;;;;;;6177821;23;20700;-77
2023/12/07 08:28:09;;;;;;;27.25;5.80;;;0.90;99.90;;;;;;6177450;23;20009;-78
2023/12/07 08:30:35;;;;;;;15.30;4.63;;;1.00;99.90;;;;;;6179918;23;20036;-77
2023/12/07 08:33:01;;;;;;;42.33;5.70;;;1.00;99.90;;;;;;6179474;23;20027;-77
2023/12/07 08:35:26;;;;;;;38.42;5.35;;;1.00;99.90;;;;;;6176610;23;20075;-77
2023/12/07 08:37:52;;;;;;;22.30;3.75;;;1.00;99.90;;;;;;6177967;23;20029;-75
2023/12/07 08:40:17;;;;;;;38.25;5.20;;;1.00;99.90;;;;;;6178553;23;20320;-76
2023/12/07 08:42:48;;;;;;;53.60;6.05;;;1.00;99.90;;;;;;6178210;23;20101;-76
2023/12/07 08:45:13;;;;;;;39.22;5.53;;;1.00;99.90;;;;;;6176790;23;20112;-77
2023/12/07 08:47:41;;;;;;;27.52;4.20;;;1.00;99.90;;;;;;6177766;23;20037;-77
2023/12/07 08:50:10;;;;;;;33.17;4.82;;;1.00;99.90;;;;;;6178410;23;20503;-75
2023/12/07 08:52:35;;;;;;;48.42;5.45;;;1.00;99.90;;;;;;6178037;23;20021;-78
2023/12/07 08:55:01;;;;;;;32.38;5.13;;;1.10;99.90;;;;;;6177813;23;20040;-75
2023/12/07 08:57:26;;;;;;;36.08;4.68;;;1.10;99.90;;;;;;6178154;23;20312;-75
2023/12/07 08:59:52;;;;;;;31.33;4.28;;;1.00;99.90;;;;;;6179465;23;20013;-76
2023/12/07 09:02:18;;;;;;;25.67;5.15;;;1.00;99.90;;;;;;6178749;23;20001;-76
2023/12/07 09:04:44;;;;;;;52.80;5.55;;;1.00;99.90;;;;;;6179742;23;20009;-76
2023/12/07 09:07:11;;;;;;;29.88;4.40;;;1.00;99.90;;;;;;6176681;23;20019;-76
2023/12/07 09:09:36;;;;;;;45.42;4.65;;;1.10;99.90;;;;;;6179431;23;20024;-76
2023/12/07 09:12:02;;;;;;;47.38;5.95;;;1.10;99.90;;;;;;6179301;23;20013;-75
2023/12/07 09:14:28;;;;;;;20.60;4.38;;;1.10;99.90;;;;;;6178206;23;20312;-76
2023/12/07 09:16:54;;;;;;;21.80;4.53;;;1.10;99.90;;;;;;6177410;23;20457;-78
2023/12/07 09:19:20;;;;;;;28.92;4.82;;;1.10;99.90;;;;;;6178109;23;20009;-77
2023/12/07 09:21:45;;;;;;;23.60;4.88;;;1.20;99.90;;;;;;6177904;23;20355;-76
2023/12/07 09:24:11;;;;;;;32.08;4.80;;;1.20;99.90;;;;;;6178190;23;20051;-76
2023/12/07 09:26:37;;;;;;;24.98;5.00;;;1.20;99.90;;;;;;6179321;23;20012;-75
2023/12/07 09:29:02;;;;;;;35.10;4.85;;;1.20;99.90;;;;;;6179311;23;20592;-76
2023/12/07 09:31:28;;;;;;;44.63;5.97;;;1.20;99.90;;;;;;6177767;23;20005;-76
2023/12/07 09:33:54;;;;;;;31.80;4.88;;;1.20;99.90;;;;;;6179223;23;20017;-77
2023/12/07 09:36:24;;;;;;;34.58;5.03;;;1.20;99.90;;;;;;6175837;23;20009;-76
2023/12/07 09:38:49;;;;;;;28.55;4.45;;;1.30;99.90;;;;;;6177968;23;20044;-76
2023/12/07 09:41:15;;;;;;;21.67;5.00;;;1.30;99.90;;;;;;6178135;23;20005;-77
2023/12/07 09:43:41;;;;;;;29.20;6.32;;;1.30;99.90;;;;;;6178929;23;20016;-76
2023/12/07 09:46:07;;;;;;;53.97;6.57;;;1.20;99.90;;;;;;6177821;23;20009;-77
2023/12/07 09:48:33;;;;;;;21.88;5.30;;;1.20;99.90;;;;;;6179032;23;20013;-75
2023/12/07 09:51:00;;;;;;;28.83;6.13;;;1.30;99.90;;;;;;6179121;23;20055;-76
2023/12/07 09:53:29;;;;;;;22.83;6.75;;;1.30;99.90;;;;;;6176276;23;20028;-75
2023/12/07 09:55:54;;;;;;;41.92;6.00;;;1.30;99.90;;;;;;6177269;23;20553;-76
2023/12/07 09:58:20;;;;;;;46.50;6.07;;;1.30;99.90;;;;;;6177605;23;20005;-76
2023/12/07 10:00:47;;;;;;;15.20;5.30;;;1.30;99.90;;;;;;6177476;23;20123;-76
2023/12/07 10:03:23;;;;;;;13.90;4.72;;;1.30;99.90;;;;;;6176239;23;20021;-76
2023/12/07 10:05:56;;;;;;;28.73;5.63;;;1.40;99.90;;;;;;6179100;23;20005;-77
2023/12/07 10:08:31;;;;;;;29.90;5.45;;;1.30;99.90;;;;;;6177465;23;20028;-76
2023/12/07 10:11:07;;;;;;;30.77;6.10;;;1.40;99.90;;;;;;6177023;23;20083;-76
2023/12/07 10:13:35;;;;;;;25.45;4.85;;;1.40;99.90;;;;;;6176155;23;20406;-76
2023/12/07 10:16:07;;;;;;;39.97;4.80;;;1.30;99.90;;;;;;6178630;23;20020;-76
2023/12/07 10:18:32;;;;;;;19.08;4.38;;;1.30;99.90;;;;;;6178035;23;20009;-76
2023/12/07 10:20:58;;;;;;;20.38;4.47;;;1.40;99.90;;;;;;6178922;23;20320;-76
2023/12/07 10:23:26;;;;;;;11.65;3.72;;;1.40;99.90;;;;;;6175438;23;20017;-75
2023/12/07 10:25:51;;;;;;;16.75;4.45;;;1.40;99.90;;;;;;6179301;23;20005;-78
2023/12/07 10:28:19;;;;;;;23.38;4.80;;;1.40;99.90;;;;;;6176224;23;20089;-76
2023/12/07 10:30:45;;;;;;;13.38;3.90;;;1.40;99.90;;;;;;6176753;23;20051;-76
2023/12/07 10:33:12;;;;;;;18.13;5.68;;;1.40;99.90;;;;;;6175416;23;20346;-76
2023/12/07 10:35:42;;;;;;;15.27;4.72;;;1.50;99.90;;;;;;6176705;23;20013;-76
2023/12/07 10:38:09;;;;;;;12.95;4.35;;;1.50;99.90;;;;;;6177473;23;20342;-76
2023/12/07 10:40:35;;;;;;;15.07;4.95;;;1.50;99.90;;;;;;6176602;23;20021;-76
2023/12/07 10:43:06;;;;;;;13.38;4.00;;;1.50;99.90;;;;;;6178418;23;20036;-74
2023/12/07 10:45:34;;;;;;;12.23;4.38;;;1.60;99.90;;;;;;6177872;23;20009;-75
2023/12/07 10:48:06;;;;;;;29.95;6.15;;;1.60;99.90;;;;;;6176789;23;20431;-75
2023/12/07 10:50:34;;;;;;;18.60;5.63;;;1.60;99.90;;;;;;6177518;23;20095;-75
2023/12/07 10:53:09;;;;;;;21.08;5.22;;;1.70;99.90;;;;;;6177066;23;20013;-76
2023/12/07 10:55:43;;;;;;;19.70;5.53;;;1.60;99.90;;;;;;6178576;23;20593;-76
2023/12/07 10:58:10;;;;;;;31.17;5.07;;;1.70;99.90;;;;;;6175565;23;20058;-76
2023/12/07 11:00:36;;;;;;;27.23;5.57;;;1.70;99.90;;;;;;6176671;23;20350;-76
2023/12/07 11:03:02;;;;;;;19.83;5.47;;;1.70;99.90;;;;;;6175002;23;20013;-77
2023/12/07 11:05:30;;;;;;;21.35;5.70;;;1.70;99.90;;;;;;6175151;23;20013;-77
2023/12/07 11:08:04;;;;;;;26.52;5.25;;;1.70;99.90;;;;;;6178234;23;20016;-74
2023/12/07 11:10:52;;;;;;;16.40;6.03;;;1.70;99.90;;;;;;6179238;23;20016;-77
2023/12/07 11:13:23;;;;;;;21.88;6.40;;;1.80;99.90;;;;;;6177617;23;20009;-76
2023/12/07 11:15:49;;;;;;;18.80;5.97;;;1.80;99.90;;;;;;6178601;23;20013;-77
2023/12/07 11:18:15;;;;;;;18.52;5.97;;;1.80;99.90;;;;;;6177519;23;20103;-75
2023/12/07 11:20:44;;;;;;;14.57;5.82;;;1.80;99.90;;;;;;6180337;23;20017;-77
2023/12/07 11:23:10;;;;;;;22.60;6.03;;;1.90;99.90;;;;;;6177440;23;20009;-77
2023/12/07 11:25:36;;;;;;;22.40;6.38;;;2.00;99.90;;;;;;6180688;23;20350;-75
2023/12/07 11:28:04;;;;;;;18.83;6.18;;;1.90;99.90;;;;;;6178949;23;20451;-77
2023/12/07 11:30:34;;;;;;;19.98;6.40;;;1.90;99.90;;;;;;6178695;23;20017;-76
2023/12/07 11:33:02;;;;;;;15.73;5.47;;;2.00;99.90;;;;;;6180175;23;20488;-76
2023/12/07 11:35:28;;;;;;;19.73;8.35;;;2.00;99.90;;;;;;6177097;23;20066;-76
2023/12/07 11:38:00;;;;;;;16.50;6.25;;;1.90;99.90;;;;;;6178550;23;20048;-76
2023/12/07 11:40:25;;;;;;;19.25;6.20;;;2.00;99.90;;;;;;6178709;23;20519;-74
2023/12/07 11:42:52;;;;;;;17.58;6.80;;;2.00;99.90;;;;;;6179929;23;20033;-78
2023/12/07 11:45:36;;;;;;;21.50;7.57;;;2.00;99.90;;;;;;6178701;23;20017;-76
2023/12/07 11:48:12;;;;;;;14.38;5.68;;;2.00;99.90;;;;;;6156367;23;20009;-71
2023/12/07 11:51:00;;;;;;;16.15;6.82;;;2.10;99.90;;;;;;6176430;23;20145;-73
2023/12/07 11:53:31;;;;;;;16.85;5.93;;;2.10;99.90;;;;;;6179493;23;20029;-72
2023/12/07 11:56:01;;;;;;;23.60;7.80;;;2.10;99.90;;;;;;6180237;23;20012;-72
2023/12/07 11:58:28;;;;;;;25.65;8.38;;;2.10;99.90;;;;;;6147208;23;20391;-72
2023/12/07 12:00:54;;;;;;;24.70;7.55;;;2.10;99.90;;;;;;6150524;23;20006;-70
2023/12/07 12:03:20;;;;;;;17.33;6.72;;;2.10;99.90;;;;;;6148088;23;20036;-71
2023/12/07 12:05:46;;;;;;;15.52;6.03;;;2.10;99.90;;;;;;6148679;23;20016;-72
2023/12/07 12:08:12;;;;;;;16.02;6.20;;;2.20;99.90;;;;;;6147653;23;20351;-71
2023/12/07 12:10:38;;;;;;;18.02;7.70;;;2.20;99.90;;;;;;6148555;23;20009;-72
2023/12/07 12:13:05;;;;;;;15.75;7.20;;;2.20;99.90;;;;;;6148771;23;20526;-71
2023/12/07 12:15:31;;;;;;;17.88;6.63;;;2.30;99.90;;;;;;6147734;23;20009;-70
2023/12/07 12:17:57;;;;;;;20.65;7.80;;;2.30;99.90;;;;;;6149775;23;20020;-72
2023/12/07 12:20:24;;;;;;;16.83;6.90;;;2.30;99.90;;;;;;6147118;23;20112;-72
2023/12/07 12:22:53;;;;;;;17.50;7.18;;;2.30;99.90;;;;;;6148778;23;20056;-73
2023/12/07 12:25:32;;;;;;;23.40;6.78;;;2.40;99.90;;;;;;6147508;23;20014;-72
2023/12/07 12:28:01;;;;;;;19.65;7.75;;;2.40;99.90;;;;;;6148735;23;20023;-73
2023/12/07 12:30:28;;;;;;;16.83;6.13;;;2.40;99.90;;;;;;6154827;23;20040;-72
2023/12/07 12:32:54;;;;;;;20.10;7.05;;;2.40;99.90;;;;;;6154350;23;20060;-73
2023/12/07 12:35:19;;;;;;;18.65;8.32;;;2.40;99.90;;;;;;6149571;23;20013;-72
2023/12/07 12:37:47;;;;;;;19.20;7.20;;;2.50;99.90;;;;;;6148828;23;20024;-72
2023/12/07 12:40:20;;;;;;;15.90;6.80;;;2.50;99.90;;;;;;6149102;23;20439;-74
2023/12/07 12:42:48;;;;;;;23.48;8.05;;;2.50;99.90;;;;;;6150076;23;20013;-75
2023/12/07 12:45:14;;;;;;;25.08;8.02;;;2.60;99.90;;;;;;6147410;23;20014;-75